Data for 12/29/2013

Time Sea-Level Adjusted Pressure Absolute Pressure Temperature Relative Humidity Dew Point   
(mb) (inHg) (mb) (inHg) (C) (F) (%) (C) (F)
00:05 1025 30.27 854 25.22 -8.5 16.8 85 -10.6 12.9
00:10 1025 30.27 854 25.22 -8.5 16.8 85 -10.6 12.9
00:15 1025 30.27 854 25.22 -8.5 16.8 84 -10.7 12.8
00:20 1025 30.27 854 25.22 -8.4 16.8 84 -10.7 12.8
00:25 1025 30.27 854 25.22 -8.3 17 84 -10.6 13
00:30 1025 30.27 854 25.22 -8.3 17 84 -10.6 13
00:35 1025 30.27 854 25.22 -8.4 16.9 85 -10.5 13
00:40 1025 30.27 854 25.22 -8.4 16.8 85 -10.6 12.9
00:45 1025 30.27 854 25.22 -8.5 16.8 85 -10.5 13.1
00:50 1025 30.27 854 25.22 -8.4 16.8 85 -10.5 13.1
00:55 1025 30.27 854 25.22 -8.5 16.6 85 -10.6 12.9
01:00 1025 30.27 854 25.22 -8.6 16.6 86 -10.5 13.1
01:05 1025 30.27 854 25.22 -8.5 16.7 85 -10.6 12.9
01:10 1025 30.27 854 25.22 -8.4 16.9 84 -10.6 12.9
01:15 1025 30.27 854 25.22 -8.5 16.7 85 -10.6 12.9
01:20 1025 30.27 854 25.22 -8.5 16.7 84 -10.7 12.8
01:25 1025 30.27 854 25.22 -8.4 16.9 85 -10.5 13
01:30 1025 30.27 854 25.22 -8.5 16.8 85 -10.5 13
01:35 1025 30.27 854 25.22 -8.7 16.3 86 -10.6 12.8
01:40 1025 30.27 854 25.22 -9 15.9 86 -10.8 12.5
01:45 1025 30.27 854 25.22 -9.2 15.4 87 -11 12.2
01:50 1025 30.27 854 25.22 -9.4 15 87 -11.2 11.8
01:55 1025 30.27 854 25.22 -9.3 15.3 88 -10.9 12.4
02:00 1025 30.27 854 25.22 -8.6 16.4 85 -10.8 12.6
02:05 1025 30.27 854 25.22 -8.4 16.8 84 -10.7 12.8
02:10 1025 30.27 854 25.22 -8.4 17 84 -10.7 12.8
02:15 1025 30.27 854 25.22 -8.4 16.9 83 -10.7 12.7
02:20 1025 30.27 854 25.22 -8.5 16.6 84 -10.8 12.6
02:25 1025 30.27 854 25.22 -8.6 16.6 84 -10.7 12.7
02:30 1025 30.27 854 25.22 -8.7 16.3 85 -10.8 12.5
02:35 1025 30.27 854 25.22 -8.6 16.4 85 -10.8 12.6
02:40 1025 30.27 854 25.22 -8.6 16.5 84 -10.8 12.5
02:45 1025 30.27 854 25.22 -8.6 16.5 84 -10.8 12.5
02:50 1025 30.27 854 25.22 -8.7 16.4 85 -10.7 12.7
02:55 1025 30.27 854 25.22 -8.3 17 84 -10.5 13
03:00 1025 30.27 854 25.22 -8 17.6 83 -10.4 13.3
03:05 1025 30.27 854 25.22 -8 17.7 83 -10.4 13.3
03:10 1025 30.27 854 25.22 -8.1 17.4 83 -10.5 13.1
03:15 1025 30.27 854 25.22 -8.4 17 84 -10.5 13
03:20 1025 30.27 854 25.22 -8.3 17 84 -10.5 13
03:25 1025 30.27 854 25.22 -8.3 17 84 -10.5 13
03:30 1025 30.27 854 25.22 -8.3 17.2 83 -10.7 12.8
03:35 1025 30.27 854 25.22 -8.3 17.1 83 -10.6 12.9
03:40 1025 30.27 854 25.22 -8.2 17.2 83 -10.6 12.9
03:45 1025 30.27 854 25.22 -8.5 16.7 85 -10.6 12.9
03:50 1025 30.27 854 25.22 -8.4 16.8 84 -10.6 12.8
03:55 1025 30.27 854 25.22 -8.2 17.3 84 -10.4 13.2
04:00 1025 30.27 854 25.22 -7.8 17.9 82 -10.4 13.3
04:05 1025 30.27 854 25.22 -8 17.5 83 -10.5 13.2
04:10 1025 30.27 854 25.22 -8.4 16.8 85 -10.5 13.1
04:15 1025 30.27 854 25.22 -8.6 16.5 87 -10.4 13.3
04:20 1025 30.27 854 25.22 -7.9 17.7 84 -10.1 13.8
04:25 1025 30.27 854 25.22 -7.5 18.5 84 -9.8 14.4
04:30 1024 30.24 854 25.22 -7.1 19.2 81 -9.8 14.3
04:35 1024 30.24 853 25.19 -6.9 19.5 80 -9.8 14.4
04:40 1024 30.24 853 25.19 -7.2 19.1 80 -10.1 13.9
04:45 1024 30.24 853 25.19 -7.6 18.3 82 -10.2 13.6
04:50 1024 30.24 853 25.19 -8 17.6 84 -10.2 13.6
04:55 1024 30.24 853 25.19 -8.2 17.3 85 -10.3 13.4
05:00 1024 30.24 853 25.19 -8.2 17.2 85 -10.3 13.4
05:05 1024 30.24 853 25.19 -8.3 17.2 85 -10.4 13.3
05:10 1024 30.24 853 25.19 -8.4 16.8 86 -10.3 13.4
05:15 1024 30.24 853 25.19 -8.4 16.9 87 -10.3 13.5
05:20 1024 30.24 853 25.19 -8.2 17.2 86 -10.1 13.8
05:25 1024 30.24 853 25.19 -8 17.7 84 -10.2 13.7
05:30 1024 30.24 853 25.19 -7.8 18.1 84 -10.1 13.9
05:35 1024 30.24 853 25.19 -7.3 18.8 79 -10.3 13.5
05:40 1024 30.24 853 25.19 -7.7 18.1 78 -10.9 12.4
05:45 1024 30.24 853 25.19 -8.7 16.4 84 -10.9 12.4
05:50 1024 30.24 853 25.19 -8.8 16.1 85 -10.9 12.4
05:55 1024 30.24 853 25.19 -8.3 17.1 83 -10.7 12.7
06:00 1024 30.24 853 25.19 -9 15.9 82 -11.5 11.2
06:05 1024 30.24 853 25.19 -9.9 14.2 89 -11.4 11.5
06:10 1023 30.21 853 25.19 -9.4 15.2 89 -10.9 12.3
06:15 1023 30.21 853 25.19 -8.9 15.9 87 -10.7 12.8
06:20 1023 30.21 853 25.19 -8.5 16.7 84 -10.7 12.7
06:25 1024 30.24 853 25.19 -8.1 17.5 80 -10.9 12.4
06:30 1024 30.24 853 25.19 -8 17.7 80 -10.8 12.6
06:35 1024 30.24 853 25.19 -8 17.6 80 -10.9 12.3
06:40 1024 30.24 853 25.19 -8.1 17.3 82 -10.8 12.6
06:45 1023 30.21 853 25.19 -8.4 17 82 -11 12.3
06:50 1023 30.21 853 25.19 -9.1 15.7 85 -11.1 12
06:55 1023 30.21 852 25.16 -9.5 14.9 87 -11.3 11.6
07:00 1023 30.21 852 25.16 -9.7 14.6 90 -11 12.1
07:05 1023 30.21 852 25.16 -9.3 15.4 88 -10.9 12.4
07:10 1023 30.21 852 25.16 -9.5 15 87 -11.2 11.8
07:15 1023 30.21 852 25.16 -9.5 14.9 85 -11.5 11.3
07:20 1023 30.21 852 25.16 -8.8 16.3 81 -11.4 11.5
07:25 1023 30.21 852 25.16 -8.1 17.5 76 -11.5 11.2
07:30 1023 30.21 852 25.16 -8.3 17.1 79 -11.4 11.5
07:35 1023 30.21 852 25.16 -8 17.6 76 -11.6 11.2
07:40 1023 30.21 852 25.16 -8.1 17.4 75 -11.8 10.7
07:45 1023 30.21 852 25.16 -8.3 17.2 75 -12 10.5
07:50 1023 30.21 853 25.19 -8.1 17.4 74 -12 10.4
07:55 1023 30.21 853 25.19 -8.1 17.4 75 -11.8 10.7
08:00 1023 30.21 853 25.19 -8.3 17 77 -11.7 11
08:05 1023 30.21 853 25.19 -8.4 17 76 -11.8 10.8
08:10 1023 30.21 852 25.16 -8.3 17 75 -11.9 10.6
08:15 1023 30.21 852 25.16 -8.5 16.8 77 -11.8 10.8
08:20 1023 30.21 853 25.19 -7.9 17.8 75 -11.6 11.2
08:25 1023 30.21 853 25.19 -7.9 17.8 74 -11.8 10.8
08:30 1023 30.21 852 25.16 -7.9 17.9 74 -11.7 10.9
08:35 1023 30.21 852 25.16 -7.8 18 74 -11.7 11
08:40 1023 30.21 852 25.16 -7.8 18.1 73 -11.8 10.8
08:45 1023 30.21 852 25.16 -8 17.6 73 -12 10.4
08:50 1023 30.21 852 25.16 -8.1 17.4 74 -12 10.4
08:55 1022 30.18 852 25.16 -8.1 17.5 73 -12 10.4
09:00 1022 30.18 851 25.13 -8.2 17.3 76 -11.7 10.9
09:05 1022 30.18 851 25.13 -8.3 17.1 74 -12.1 10.3
09:10 1022 30.18 851 25.13 -8.4 16.9 76 -11.9 10.5
09:15 1022 30.18 851 25.13 -8.4 16.9 76 -11.9 10.5
09:20 1022 30.18 851 25.13 -8.1 17.4 75 -11.8 10.8
09:25 1022 30.18 851 25.13 -7.7 18.2 72 -11.9 10.7
09:30 1022 30.18 851 25.13 -7.3 18.9 70 -11.9 10.6
09:35 1022 30.18 851 25.13 -6.6 20.1 67 -11.7 10.9
09:40 1022 30.18 851 25.13 -6.6 20 68 -11.6 11.1
09:45 1022 30.18 851 25.13 -6.8 19.8 69 -11.5 11.3
09:50 1022 30.18 851 25.13 -6.9 19.6 69 -11.7 11
09:55 1022 30.18 851 25.13 -7.1 19.2 71 -11.6 11.2
10:00 1022 30.18 851 25.13 -6.8 19.8 70 -11.4 11.4
10:05 1022 30.18 851 25.13 -6.5 20.2 67 -11.6 11.1
10:10 1022 30.18 851 25.13 -6.4 20.5 66 -11.8 10.7
10:15 1022 30.18 851 25.13 -6.6 20.1 68 -11.5 11.3
10:20 1022 30.18 851 25.13 -7.8 18.1 72 -12 10.4
10:25 1022 30.18 851 25.13 -8.1 17.4 73 -12 10.3
10:30 1022 30.18 851 25.13 -7.8 17.9 72 -12.1 10.3
10:35 1022 30.18 851 25.13 -6.9 19.6 68 -11.8 10.7
10:40 1022 30.18 851 25.13 -6.2 20.8 66 -11.5 11.2
10:45 1022 30.18 851 25.13 -5.9 21.4 66 -11.2 11.8
10:50 1022 30.18 851 25.13 -5.3 22.4 64 -11.1 12
10:55 1022 30.18 851 25.13 -4.8 23.4 62 -11.1 12.1
11:00 1022 30.18 851 25.13 -4 24.8 60 -10.7 12.8
11:05 1022 30.18 851 25.13 -3.7 25.4 60 -10.3 13.4
11:10 1022 30.18 851 25.13 -3.8 25.2 60 -10.4 13.3
11:15 1022 30.18 851 25.13 -3.7 25.3 59 -10.5 13.1
11:20 1021 30.15 851 25.13 -3.8 25.1 62 -10.1 13.9
11:25 1021 30.15 851 25.13 -3.4 25.9 58 -10.5 13.1
11:30 1021 30.15 851 25.13 -2.5 27.5 55 -10.3 13.5
11:35 1022 30.18 851 25.13 -2.5 27.6 57 -9.9 14.3
11:40 1022 30.18 851 25.13 -2.5 27.6 57 -10 14
11:45 1022 30.18 851 25.13 -2.6 27.3 57 -10.1 13.9
11:50 1021 30.15 851 25.13 -2.6 27.3 56 -10.3 13.5
11:55 1021 30.15 851 25.13 -2.3 27.8 56 -10 14
12:00 1022 30.18 851 25.13 -2.6 27.4 57 -9.9 14.2
12:05 1022 30.18 851 25.13 -2.7 27.1 56 -10.4 13.3
12:10 1021 30.15 851 25.13 -2.2 28 54 -10.4 13.3
12:15 1021 30.15 851 25.13 -3.1 26.5 60 -9.9 14.2
12:20 1021 30.15 851 25.13 -3.3 26 58 -10.4 13.3
12:25 1021 30.15 850 25.1 -3.4 25.9 60 -10 13.9
12:30 1021 30.15 850 25.1 -3.1 26.4 59 -10.1 13.8
12:35 1021 30.15 850 25.1 -2.7 27.1 57 -10.1 13.9
12:40 1021 30.15 850 25.1 -2.8 27 58 -10 14
12:45 1021 30.15 850 25.1 -3 26.6 58 -10.2 13.7
12:50 1021 30.15 850 25.1 -3 26.6 59 -9.9 14.2
12:55 1021 30.15 850 25.1 -2.9 26.8 58 -10.1 13.8
13:00 1021 30.15 850 25.1 -3.2 26.2 60 -9.9 14.2
13:05 1021 30.15 850 25.1 -3.8 25.2 62 -10.1 13.8
13:10 1021 30.15 850 25.1 -3.8 25.2 62 -10 13.9
13:15 1021 30.15 850 25.1 -3.8 25.2 62 -10.1 13.9
13:20 1021 30.15 850 25.1 -3.7 25.4 61 -10 14
13:25 1021 30.15 850 25.1 -4 24.9 63 -10 13.9
13:30 1020 30.12 850 25.1 -4.4 24 65 -10 14
13:35 1020 30.12 849 25.07 -4.7 23.6 65 -10.4 13.4
13:40 1020 30.12 849 25.07 -4.3 24.3 62 -10.6 13
13:45 1020 30.12 849 25.07 -4.3 24.3 62 -10.6 13
13:50 1020 30.12 849 25.07 -4.3 24.2 62 -10.6 13
13:55 1020 30.12 849 25.07 -4.4 24.1 62 -10.6 13
14:00 1020 30.12 849 25.07 -4.1 24.6 58 -11.2 11.9
14:05 1020 30.12 849 25.07 -3.8 25.2 59 -10.7 12.7
14:10 1019 30.09 849 25.07 -3.6 25.5 58 -10.7 12.7
14:15 1019 30.09 848 25.04 -3.4 25.9 58 -10.5 13.1
14:20 1019 30.09 848 25.04 -3.8 25.2 61 -10.4 13.4
14:25 1019 30.09 848 25.04 -4.2 24.5 62 -10.5 13.2
14:30 1019 30.09 848 25.04 -4 24.8 59 -10.9 12.4
14:35 1019 30.09 848 25.04 -3.8 25.2 58 -10.9 12.4
14:40 1019 30.09 848 25.04 -3.3 26 54 -11.3 11.7
14:45 1018 30.06 848 25.04 -3 26.5 55 -10.9 12.4
14:50 1018 30.06 848 25.04 -2.7 27.1 53 -11 12.1
14:55 1018 30.06 848 25.04 -2.5 27.5 52 -11 12.2
15:00 1018 30.06 847 25.01 -2.3 27.8 51 -11.2 11.9
15:05 1018 30.06 847 25.01 -2.4 27.6 52 -11.1 12.1
15:10 1018 30.06 847 25.01 -2.5 27.6 52 -11 12.2
15:15 1018 30.06 847 25.01 -2.3 27.8 52 -10.9 12.4
15:20 1018 30.06 847 25.01 -2.2 28.1 51 -11 12.2
15:25 1018 30.06 847 25.01 -2.2 28 53 -10.5 13
15:30 1018 30.06 847 25.01 -2.2 28 53 -10.6 12.9
15:35 1018 30.06 847 25.01 -2.2 28.1 52 -10.7 12.7
15:40 1018 30.06 847 25.01 -2.3 27.9 53 -10.5 13
15:45 1018 30.06 847 25.01 -2.4 27.8 54 -10.6 13
15:50 1018 30.06 847 25.01 -2.6 27.4 55 -10.5 13.2
15:55 1018 30.06 847 25.01 -3 26.5 57 -10.3 13.4
16:00 1018 30.06 847 25.01 -3.5 25.7 57 -10.9 12.4
16:05 1018 30.06 847 25.01 -3.4 25.8 56 -10.9 12.4
16:10 1018 30.06 847 25.01 -3.2 26.2 54 -11.2 11.8
16:15 1018 30.06 847 25.01 -3.1 26.5 56 -10.8 12.6
16:20 1018 30.06 847 25.01 -3 26.6 53 -11.2 11.8
16:25 1018 30.06 847 25.01 -2.9 26.8 54 -10.9 12.4
16:30 1018 30.06 847 25.01 -2.8 26.9 51 -11.7 11
16:35 1018 30.06 847 25.01 -2.6 27.3 49 -12 10.4
16:40 1018 30.06 847 25.01 -2.4 27.6 49 -11.8 10.8
16:45 1018 30.06 847 25.01 -2.2 28 48 -11.8 10.8
16:50 1018 30.06 847 25.01 -2.4 27.7 50 -11.5 11.3
16:55 1018 30.06 847 25.01 -2.4 27.7 48 -12 10.5
17:00 1018 30.06 847 25.01 -2.2 28 51 -11 12.1
17:05 1018 30.06 847 25.01 -2.2 28 50 -11.3 11.7
17:10 1018 30.06 847 25.01 -2.2 28 49 -11.7 10.9
17:15 1018 30.06 847 25.01 -2.3 27.9 50 -11.5 11.3
17:20 1018 30.06 847 25.01 -2.2 28 50 -11.3 11.7
17:25 1018 30.06 847 25.01 -2.2 28.1 49 -11.6 11
17:30 1018 30.06 847 25.01 -2 28.4 47 -11.9 10.5
17:35 1018 30.06 847 25.01 -2 28.5 49 -11.3 11.6
17:40 1018 30.06 847 25.01 -2.1 28.2 48 -11.7 10.9
17:45 1017 30.03 847 25.01 -1.8 28.7 46 -11.9 10.5
17:50 1017 30.03 847 25.01 -1.8 28.7 46 -11.9 10.5
17:55 1017 30.03 847 25.01 -1.7 28.9 45 -12 10.3
18:00 1017 30.03 847 25.01 -1.7 28.9 45 -12.2 10
18:05 1017 30.03 847 25.01 -1.5 29.3 44 -12.1 10.2
18:10 1017 30.03 846 24.98 -1.6 29.1 49 -11 12.1
18:15 1017 30.03 846 24.98 -1.7 29 43 -12.7 9.2
18:20 1017 30.03 846 24.98 -1.4 29.5 48 -11 12.3
18:25 1017 30.03 846 24.98 -1.5 29.2 46 -11.8 10.8
18:30 1017 30.03 846 24.98 -1.4 29.5 47 -11.4 11.4
18:35 1017 30.03 846 24.98 -1.3 29.7 48 -10.9 12.3
18:40 1017 30.03 846 24.98 -1.5 29.4 50 -10.6 12.9
18:45 1017 30.03 846 24.98 -1.5 29.3 45 -12.1 10.2
18:50 1017 30.03 846 24.98 -1 30.2 43 -12.2 10.1
18:55 1017 30.03 846 24.98 -0.9 30.4 43 -11.9 10.6
19:00 1017 30.03 846 24.98 -0.9 30.5 46 -11.1 12
19:05 1017 30.03 846 24.98 -1 30.1 45 -11.5 11.4
19:10 1017 30.03 847 25.01 -1.1 30.1 48 -10.8 12.6
19:15 1018 30.06 847 25.01 -1.1 30.1 48 -10.8 12.5
19:20 1018 30.06 847 25.01 -1 30.2 46 -11.3 11.7
19:25 1018 30.06 847 25.01 -0.9 30.4 45 -11.4 11.4
19:30 1018 30.06 847 25.01 -0.8 30.6 46 -11 12.2
19:35 1018 30.06 847 25.01 -0.9 30.4 48 -10.5 13.1
19:40 1018 30.06 847 25.01 -1 30.2 50 -10.1 13.7
19:45 1018 30.06 847 25.01 -1.2 29.9 51 -10.1 13.8
19:50 1018 30.06 847 25.01 -1.3 29.6 53 -9.7 14.6
19:55 1018 30.06 847 25.01 -1.6 29.1 58 -8.8 16.1
20:00 1018 30.06 847 25.01 -1.9 28.5 60 -8.7 16.3
20:05 1018 30.06 847 25.01 -2.1 28.1 61 -8.8 16.2
20:10 1018 30.06 847 25.01 -2.2 28 60 -8.9 16
20:15 1018 30.06 847 25.01 -2.2 28 59 -9.2 15.4
20:20 1018 30.06 848 25.04 -2.1 28.2 59 -9.1 15.6
20:25 1018 30.06 848 25.04 -2 28.4 57 -9.4 15.1
20:30 1019 30.09 848 25.04 -2 28.5 57 -9.4 15.1
20:35 1018 30.06 848 25.04 -1.9 28.6 55 -9.8 14.4
20:40 1019 30.09 848 25.04 -1.7 28.9 54 -9.9 14.1
20:45 1019 30.09 848 25.04 -1.5 29.3 51 -10.4 13.4
20:50 1019 30.09 848 25.04 -1.2 29.8 49 -10.6 13
20:55 1019 30.09 848 25.04 -1 30.2 49 -10.5 13
21:00 1019 30.09 848 25.04 -0.7 30.7 48 -10.3 13.5
21:05 1019 30.09 848 25.04 -0.6 30.9 48 -10.3 13.5
21:10 1019 30.09 848 25.04 -0.6 31 48 -10.2 13.6
21:15 1019 30.09 848 25.04 -0.5 31.1 48 -10.2 13.7
21:20 1019 30.09 848 25.04 -0.5 31.2 48 -10.2 13.6
21:25 1019 30.09 848 25.04 -0.4 31.4 46 -10.6 13
21:30 1019 30.09 848 25.04 -0.2 31.6 45 -10.7 12.7
21:35 1019 30.09 848 25.04 -0.1 31.8 45 -10.7 12.7
21:40 1019 30.09 848 25.04 -0.1 31.9 44 -11 12.3
21:45 1019 30.09 848 25.04 0.2 32.3 44 -10.8 12.5
21:50 1019 30.09 848 25.04 0.2 32.4 44 -10.7 12.7
21:55 1019 30.09 848 25.04 0.2 32.3 45 -10.4 13.3
22:00 1019 30.09 848 25.04 -0 31.9 48 -9.8 14.3
22:05 1019 30.09 848 25.04 -0.5 31 49 -10 14
22:10 1019 30.09 848 25.04 -0.8 30.6 51 -9.7 14.5
22:15 1019 30.09 848 25.04 -0.6 31 51 -9.6 14.8
22:20 1019 30.09 848 25.04 -0.4 31.2 51 -9.3 15.3
22:25 1019 30.09 848 25.04 -0.3 31.5 53 -8.7 16.3
22:30 1019 30.09 848 25.04 -0 31.9 53 -8.4 16.9
22:35 1019 30.09 848 25.04 -0.1 31.9 51 -8.9 16
22:40 1019 30.09 848 25.04 -0.2 31.6 52 -8.9 16
22:45 1019 30.09 848 25.04 -0.3 31.4 53 -8.8 16.2
22:50 1019 30.09 848 25.04 -0.4 31.3 52 -9.1 15.7
22:55 1019 30.09 848 25.04 -0.3 31.5 52 -9.1 15.6
23:00 1019 30.09 848 25.04 -0.5 31.1 52 -9.2 15.4
23:05 1019 30.09 848 25.04 -0.6 30.9 54 -8.8 16.1
23:10 1019 30.09 848 25.04 -0.6 31 53 -9 15.8
23:15 1019 30.09 848 25.04 -0.4 31.2 53 -8.8 16.1
23:20 1019 30.09 848 25.04 -0.2 31.6 53 -8.6 16.5
23:25 1019 30.09 848 25.04 -0.3 31.4 55 -8.4 16.9
23:30 1019 30.09 848 25.04 -0.2 31.7 54 -8.3 17.1
23:35 1019 30.09 848 25.04 -0.1 31.8 54 -8.3 17.1
23:40 1019 30.09 848 25.04 -0.1 31.9 55 -8.1 17.4
23:45 1019 30.09 848 25.04 -0.2 31.6 56 -7.9 17.7
23:50 1019 30.09 848 25.04 -0.3 31.5 56 -7.9 17.8
23:55 1019 30.09 848 25.04 -0.2 31.7 56 -8 17.6
24:00 1019 30.09 848 25.04 -0.1 31.8 57 -7.7 18.2